createdAt,value
2022-08-26T00:01:54.248Z,18.22
2022-08-26T00:04:23.829Z,18.20
2022-08-26T00:06:51.792Z,18.18
2022-08-26T00:09:19.376Z,18.19
2022-08-26T00:11:46.608Z,18.18
2022-08-26T00:14:16.533Z,18.14
2022-08-26T00:16:47.838Z,18.12
2022-08-26T00:19:20.963Z,18.11
2022-08-26T00:21:50.078Z,18.10
2022-08-26T00:24:20.492Z,18.08
2022-08-26T00:26:49.247Z,18.08
2022-08-26T00:29:17.293Z,18.02
2022-08-26T00:31:45.092Z,18.02
2022-08-26T00:34:13.912Z,18.05
2022-08-26T00:36:41.177Z,18.04
2022-08-26T00:39:09.397Z,18.08
2022-08-26T00:41:40.518Z,17.98
2022-08-26T00:44:11.230Z,18.13
2022-08-26T00:46:49.463Z,18.13
2022-08-26T00:49:42.992Z,18.14
2022-08-26T00:52:15.983Z,18.06
2022-08-26T00:55:00.805Z,18.12
2022-08-26T00:57:32.097Z,18.07
2022-08-26T01:00:01.523Z,18.09
2022-08-26T01:02:29.492Z,18.06
2022-08-26T01:05:00.905Z,18.07
2022-08-26T01:07:32.309Z,18.06
2022-08-26T01:10:05.899Z,17.97
2022-08-26T01:12:40.163Z,18.03
2022-08-26T01:15:10.384Z,18.01
2022-08-26T01:17:39.699Z,18.01
2022-08-26T01:20:17.987Z,18.03
2022-08-26T01:22:54.165Z,18.03
2022-08-26T01:25:24.253Z,18.01
2022-08-26T01:27:52.674Z,17.93
2022-08-26T01:30:21.170Z,17.98
2022-08-26T01:32:50.616Z,17.97
2022-08-26T01:35:18.472Z,17.96
2022-08-26T01:37:48.225Z,17.99
2022-08-26T01:40:20.597Z,17.99
2022-08-26T01:42:49.325Z,17.94
2022-08-26T01:45:26.324Z,17.98
2022-08-26T01:47:57.389Z,17.95
2022-08-26T01:50:30.143Z,17.93
2022-08-26T01:53:02.580Z,18.00
2022-08-26T01:55:33.055Z,17.98
2022-08-26T01:58:05.658Z,18.13
2022-08-26T02:00:33.694Z,18.14
2022-08-26T02:03:21.698Z,18.14
2022-08-26T02:06:01.172Z,18.08
2022-08-26T02:08:50.933Z,18.17
2022-08-26T02:11:18.552Z,18.14
2022-08-26T02:13:49.548Z,18.14
2022-08-26T02:16:22.040Z,18.13
2022-08-26T02:18:50.628Z,18.16
2022-08-26T02:21:20.688Z,18.15
2022-08-26T02:23:47.797Z,18.13
2022-08-26T02:26:19.259Z,18.20
2022-08-26T02:29:12.628Z,18.23
2022-08-26T02:31:42.096Z,18.20
2022-08-26T02:34:20.024Z,18.27
2022-08-26T02:36:47.443Z,18.27
2022-08-26T02:39:19.521Z,18.28
2022-08-26T02:41:50.147Z,18.37
2022-08-26T02:44:17.677Z,18.39
2022-08-26T02:46:46.837Z,18.43
2022-08-26T02:49:15.696Z,18.42
2022-08-26T02:51:44.398Z,18.53
2022-08-26T02:54:12.777Z,18.63
2022-08-26T02:56:40.315Z,18.71
2022-08-26T02:59:07.945Z,18.80
2022-08-26T03:01:37.088Z,18.83
2022-08-26T03:04:07.104Z,19.00
2022-08-26T03:06:34.331Z,19.13
2022-08-26T03:09:01.540Z,19.33
2022-08-26T03:11:33.051Z,19.49
2022-08-26T03:14:01.816Z,19.69
2022-08-26T03:16:37.882Z,19.82
2022-08-26T03:19:08.178Z,20.02
2022-08-26T03:21:38.197Z,20.22
2022-08-26T03:24:05.985Z,20.95
2022-08-26T03:26:33.179Z,21.80
2022-08-26T03:29:18.750Z,22.26
2022-08-26T03:31:46.955Z,22.74
2022-08-26T03:34:14.851Z,23.58
2022-08-26T03:36:42.464Z,24.76
2022-08-26T03:39:12.070Z,25.92
2022-08-26T03:41:40.686Z,26.32
2022-08-26T03:44:11.497Z,26.08
2022-08-26T03:46:39.659Z,25.75
2022-08-26T03:49:07.685Z,25.36
2022-08-26T03:51:38.680Z,25.12
2022-08-26T03:54:08.365Z,25.33
2022-08-26T03:56:36.850Z,26.16
2022-08-26T03:59:04.975Z,27.70
2022-08-26T04:01:35.264Z,29.41
2022-08-26T04:04:03.255Z,30.45
2022-08-26T04:06:32.121Z,31.11
2022-08-26T04:09:02.073Z,31.15
2022-08-26T04:11:34.206Z,31.45
2022-08-26T04:14:05.700Z,32.70
2022-08-26T04:16:33.085Z,34.19
2022-08-26T04:19:00.999Z,35.25
2022-08-26T04:21:29.020Z,35.38
2022-08-26T04:23:56.792Z,35.21
2022-08-26T04:26:26.090Z,35.38
2022-08-26T04:28:54.752Z,35.20
2022-08-26T04:31:22.386Z,34.49
2022-08-26T04:33:50.542Z,34.07
2022-08-26T04:36:20.204Z,33.18
2022-08-26T04:38:48.569Z,32.33
2022-08-26T04:41:16.813Z,33.14
2022-08-26T04:43:46.625Z,35.11
2022-08-26T04:46:22.750Z,37.21
2022-08-26T04:48:51.943Z,39.08
2022-08-26T04:51:22.274Z,40.64
2022-08-26T04:56:53.453Z,43.22
2022-08-26T04:59:20.675Z,44.14
2022-08-26T05:01:54.154Z,44.92
2022-08-26T05:04:22.320Z,45.57
2022-08-26T05:06:50.210Z,46.10
2022-08-26T05:09:21.048Z,46.42
2022-08-26T05:11:52.042Z,46.63
2022-08-26T05:14:25.727Z,47.07
2022-08-26T05:16:54.079Z,47.47
2022-08-26T05:19:21.260Z,48.14
2022-08-26T05:21:48.805Z,48.71
2022-08-26T05:24:18.672Z,49.18
2022-08-26T05:26:48.102Z,49.65
2022-08-26T05:29:16.074Z,50.06
2022-08-26T05:31:44.160Z,50.34
2022-08-26T05:34:11.301Z,50.67
2022-08-26T05:36:39.291Z,51.03
2022-08-26T05:39:07.371Z,51.40
2022-08-26T05:41:38.708Z,51.85
2022-08-26T05:44:07.582Z,52.21
2022-08-26T05:46:37.037Z,52.74
2022-08-26T05:49:06.558Z,53.05
2022-08-26T05:51:45.353Z,53.36
2022-08-26T05:54:13.543Z,53.50
2022-08-26T05:56:42.427Z,53.77
2022-08-26T05:59:14.692Z,54.17
2022-08-26T06:01:43.933Z,54.53
2022-08-26T06:04:11.770Z,54.71
2022-08-26T06:06:42.871Z,54.84
2022-08-26T06:09:11.453Z,54.82
2022-08-26T06:11:39.197Z,54.46
2022-08-26T06:14:08.056Z,53.65
2022-08-26T06:16:38.742Z,53.01
2022-08-26T06:19:11.608Z,52.52
2022-08-26T06:21:42.588Z,51.96
2022-08-26T06:24:31.106Z,51.65
2022-08-26T06:27:02.040Z,51.44
2022-08-26T06:29:33.308Z,51.08
2022-08-26T06:32:02.977Z,50.64
2022-08-26T06:34:30.920Z,50.15
2022-08-26T06:37:03.269Z,49.72
2022-08-26T06:39:31.710Z,49.41
2022-08-26T06:42:01.100Z,48.74
2022-08-26T06:44:34.158Z,48.04
2022-08-26T06:47:01.618Z,47.20
2022-08-26T06:49:28.906Z,45.54
2022-08-26T06:51:59.899Z,43.36
2022-08-26T06:54:30.438Z,41.17
2022-08-26T06:56:58.089Z,39.56
2022-08-26T06:59:25.874Z,38.41
2022-08-26T07:01:53.329Z,37.18
2022-08-26T07:04:23.368Z,36.08
2022-08-26T07:06:53.567Z,35.22
2022-08-26T07:09:22.933Z,34.46
2022-08-26T07:11:51.623Z,33.92
2022-08-26T07:14:21.474Z,33.80
2022-08-26T07:16:50.459Z,33.54
2022-08-26T07:19:30.132Z,33.13
2022-08-26T07:22:04.220Z,32.79
2022-08-26T07:24:38.673Z,32.46
2022-08-26T07:27:08.883Z,32.43
2022-08-26T07:29:39.069Z,32.51
2022-08-26T07:32:06.964Z,32.46
2022-08-26T07:34:34.325Z,32.54
2022-08-26T07:37:02.028Z,32.49
2022-08-26T07:39:31.686Z,32.36
2022-08-26T07:42:01.724Z,32.08
2022-08-26T07:44:38.304Z,31.89
2022-08-26T07:47:10.260Z,31.79
2022-08-26T07:49:55.659Z,31.83
2022-08-26T07:52:26.602Z,31.87
2022-08-26T07:54:58.393Z,31.95
2022-08-26T07:57:26.502Z,32.00
2022-08-26T07:59:55.027Z,32.05
2022-08-26T08:02:24.642Z,32.20
2022-08-26T08:04:52.435Z,32.23
2022-08-26T08:07:19.700Z,32.33
2022-08-26T08:09:49.791Z,32.33
2022-08-26T08:12:18.457Z,32.33
2022-08-26T08:14:46.981Z,32.24
2022-08-26T08:17:16.503Z,32.35
2022-08-26T08:19:43.670Z,32.24
2022-08-26T08:22:17.948Z,32.14
2022-08-26T08:24:50.038Z,32.06
2022-08-26T08:27:23.807Z,32.04
2022-08-26T08:29:57.007Z,32.12
2022-08-26T08:32:24.211Z,32.16
2022-08-26T08:34:51.674Z,32.09
2022-08-26T08:37:19.268Z,31.98
2022-08-26T08:39:46.310Z,31.91
2022-08-26T08:42:31.128Z,31.76
2022-08-26T08:44:59.620Z,31.74
2022-08-26T08:47:36.043Z,31.82
2022-08-26T08:50:23.936Z,31.79
2022-08-26T08:53:17.826Z,31.87
2022-08-26T08:56:23.756Z,31.97
2022-08-26T08:58:57.521Z,32.05
2022-08-26T09:01:36.574Z,31.99
2022-08-26T09:04:26.836Z,32.06
2022-08-26T09:09:46.233Z,32.04
2022-08-26T09:12:20.538Z,32.05
2022-08-26T09:15:30.424Z,32.09
2022-08-26T09:18:10.870Z,32.16
2022-08-26T09:20:55.494Z,31.96
2022-08-26T09:23:22.874Z,31.89
2022-08-26T09:28:24.449Z,31.93
2022-08-26T09:31:24.030Z,32.07
2022-08-26T09:34:17.026Z,31.99
2022-08-26T09:36:49.342Z,32.02
2022-08-26T09:39:28.284Z,32.07
2022-08-26T09:42:21.202Z,32.09
2022-08-26T09:45:06.594Z,32.14
2022-08-26T09:47:39.037Z,32.11
2022-08-26T09:50:32.404Z,32.11
2022-08-26T09:53:09.728Z,32.13
2022-08-26T09:55:39.614Z,32.21
2022-08-26T09:58:07.921Z,32.31
2022-08-26T10:00:40.279Z,32.23
2022-08-26T10:03:12.061Z,32.37
2022-08-26T10:05:54.722Z,32.34
2022-08-26T10:08:48.397Z,32.45
2022-08-26T10:11:41.786Z,32.64
2022-08-26T10:14:20.816Z,32.78
2022-08-26T10:17:01.495Z,32.84
2022-08-26T10:19:53.595Z,32.75
2022-08-26T10:22:45.839Z,32.78
2022-08-26T10:25:20.485Z,32.63
2022-08-26T10:28:00.685Z,32.54
2022-08-26T10:30:40.763Z,32.47
2022-08-26T10:33:15.629Z,32.63
2022-08-26T10:35:52.548Z,32.69
2022-08-26T10:38:28.743Z,32.83
2022-08-26T10:41:00.216Z,32.79
2022-08-26T10:43:33.215Z,32.71
2022-08-26T10:46:05.579Z,32.86
2022-08-26T10:49:00.065Z,32.86
2022-08-26T10:51:36.708Z,32.78
2022-08-26T10:54:11.811Z,32.87
2022-08-26T10:56:57.207Z,33.06
2022-08-26T10:59:36.806Z,33.09
2022-08-26T11:02:37.215Z,33.08
2022-08-26T11:05:18.802Z,32.88
2022-08-26T11:07:48.656Z,32.74
2022-08-26T11:10:16.496Z,32.63
2022-08-26T11:12:45.494Z,32.50
2022-08-26T11:15:26.566Z,32.36
2022-08-26T11:17:55.423Z,32.43
2022-08-26T11:20:33.527Z,32.42
2022-08-26T11:23:12.996Z,32.25
2022-08-26T11:26:01.259Z,32.05
2022-08-26T11:28:50.462Z,32.17
2022-08-26T11:31:26.519Z,32.31
2022-08-26T11:34:01.307Z,32.30
2022-08-26T11:36:47.868Z,32.29
2022-08-26T11:39:17.981Z,32.20
2022-08-26T11:41:52.770Z,32.24
2022-08-26T11:44:29.546Z,32.20
2022-08-26T11:47:00.263Z,32.11
2022-08-26T11:49:29.090Z,32.11
2022-08-26T11:52:16.811Z,32.00
2022-08-26T11:55:20.315Z,32.20
2022-08-26T11:57:54.735Z,32.27
2022-08-26T12:00:36.120Z,32.38
2022-08-26T12:03:09.539Z,32.41
2022-08-26T12:05:43.500Z,32.35
2022-08-26T12:08:16.414Z,32.39
2022-08-26T12:10:43.556Z,32.28
2022-08-26T12:13:22.445Z,32.23
2022-08-26T12:15:58.303Z,32.33
2022-08-26T12:18:31.778Z,32.41
2022-08-26T12:21:01.209Z,32.54
2022-08-26T12:23:36.911Z,32.63
2022-08-26T12:26:30.780Z,32.73
2022-08-26T12:28:58.483Z,32.86
2022-08-26T12:31:39.552Z,32.91
2022-08-26T12:34:17.445Z,32.96
2022-08-26T12:36:53.131Z,32.90
2022-08-26T12:39:31.568Z,32.72
2022-08-26T12:42:01.156Z,32.45
2022-08-26T12:44:42.339Z,32.24
2022-08-26T12:47:41.958Z,32.19
2022-08-26T12:50:23.740Z,32.14
2022-08-26T12:53:02.951Z,32.11
2022-08-26T12:55:32.956Z,32.03
2022-08-26T12:58:22.555Z,31.94
2022-08-26T13:00:55.554Z,31.83
2022-08-26T13:03:38.373Z,31.69
2022-08-26T13:06:27.923Z,31.52
2022-08-26T13:09:24.164Z,31.35
2022-08-26T13:11:53.331Z,31.19
2022-08-26T13:14:24.079Z,30.99
2022-08-26T13:16:52.973Z,30.88
2022-08-26T13:19:29.154Z,30.75
2022-08-26T13:21:58.460Z,30.57
2022-08-26T13:24:38.590Z,30.50
2022-08-26T13:27:08.321Z,30.44
2022-08-26T13:29:38.177Z,30.51
2022-08-26T13:32:07.183Z,30.46
2022-08-26T13:34:37.111Z,30.45
2022-08-26T13:37:07.023Z,30.48
2022-08-26T13:39:36.988Z,30.40
2022-08-26T13:42:04.425Z,30.47
2022-08-26T13:44:43.083Z,30.53
2022-08-26T13:47:17.284Z,30.48
2022-08-26T13:49:44.649Z,30.49
2022-08-26T13:52:12.697Z,30.48
2022-08-26T13:54:41.762Z,30.40
2022-08-26T13:57:10.046Z,30.38
2022-08-26T13:59:54.666Z,30.33
2022-08-26T14:02:22.667Z,30.28
2022-08-26T14:05:02.724Z,30.19
2022-08-26T14:07:33.126Z,30.12
2022-08-26T14:10:02.589Z,30.01
2022-08-26T14:12:29.851Z,29.82
2022-08-26T14:14:56.974Z,29.80
2022-08-26T14:17:26.344Z,29.80
2022-08-26T14:19:58.084Z,29.68
2022-08-26T14:22:25.393Z,29.60
2022-08-26T14:24:52.501Z,29.50
2022-08-26T14:27:19.862Z,29.46
2022-08-26T14:29:47.027Z,29.48
2022-08-26T14:32:28.864Z,29.42
2022-08-26T14:34:56.579Z,29.33
2022-08-26T14:37:24.171Z,29.27
2022-08-26T14:39:51.735Z,29.22
2022-08-26T14:42:27.815Z,29.19
2022-08-26T14:45:02.165Z,29.11
2022-08-26T14:47:31.039Z,29.03
2022-08-26T14:49:58.120Z,29.02
2022-08-26T14:52:25.675Z,29.01
2022-08-26T14:54:55.279Z,28.91
2022-08-26T14:57:22.554Z,28.90
2022-08-26T14:59:50.594Z,28.86
2022-08-26T15:02:27.717Z,28.81
2022-08-26T15:05:02.304Z,28.67
2022-08-26T15:07:29.315Z,28.67
2022-08-26T15:09:56.419Z,28.62
2022-08-26T15:12:23.509Z,28.54
2022-08-26T15:14:51.190Z,28.47
2022-08-26T15:17:18.289Z,28.40
2022-08-26T15:19:45.376Z,28.32
2022-08-26T15:22:12.898Z,28.23
2022-08-26T15:24:42.422Z,28.12
2022-08-26T15:27:09.741Z,28.06
2022-08-26T15:29:37.625Z,27.97
2022-08-26T15:32:08.300Z,27.71
2022-08-26T15:34:35.601Z,27.80
2022-08-26T15:37:02.870Z,27.71
2022-08-26T15:39:30.007Z,27.65
2022-08-26T15:41:57.207Z,27.59
2022-08-26T15:44:29.209Z,27.49
2022-08-26T15:46:58.866Z,27.25
2022-08-26T15:49:27.639Z,27.30
2022-08-26T15:51:55.144Z,27.02
2022-08-26T15:54:24.371Z,27.02
2022-08-26T15:56:52.589Z,26.85
2022-08-26T15:59:21.688Z,26.77
2022-08-26T16:01:48.886Z,26.64
2022-08-26T16:04:16.085Z,26.48
2022-08-26T16:06:43.707Z,26.45
2022-08-26T16:09:11.274Z,26.31
2022-08-26T16:11:38.787Z,26.13
2022-08-26T16:14:06.373Z,26.04
2022-08-26T16:16:33.940Z,25.92
2022-08-26T16:19:06.843Z,25.78
2022-08-26T16:21:35.458Z,25.55
2022-08-26T16:24:03.563Z,25.37
2022-08-26T16:26:33.553Z,25.20
2022-08-26T16:29:04.956Z,25.11
2022-08-26T16:31:32.402Z,24.90
2022-08-26T16:33:59.760Z,24.72
2022-08-26T16:36:26.915Z,24.58
2022-08-26T16:38:56.567Z,24.48
2022-08-26T16:41:25.153Z,24.30
2022-08-26T16:43:54.722Z,24.14
2022-08-26T16:46:25.900Z,24.11
2022-08-26T16:48:57.711Z,23.99
2022-08-26T16:51:27.341Z,23.88
2022-08-26T16:53:57.816Z,23.74
2022-08-26T16:56:30.632Z,23.54
2022-08-26T16:59:02.922Z,23.50
2022-08-26T17:01:30.907Z,23.46
2022-08-26T17:03:58.056Z,23.36
2022-08-26T17:06:25.178Z,23.22
2022-08-26T17:08:52.646Z,23.12
2022-08-26T17:11:19.875Z,22.97
2022-08-26T17:13:47.401Z,22.96
2022-08-26T17:16:15.195Z,22.92
2022-08-26T17:18:42.639Z,22.86
2022-08-26T17:21:12.408Z,22.81
2022-08-26T17:23:43.108Z,22.71
2022-08-26T17:26:12.391Z,22.68
2022-08-26T17:28:40.103Z,22.57
2022-08-26T17:31:08.453Z,22.55
2022-08-26T17:33:36.019Z,22.49
2022-08-26T17:36:06.557Z,22.39
2022-08-26T17:38:33.911Z,22.39
2022-08-26T17:41:01.180Z,22.37
2022-08-26T17:43:28.554Z,22.34
2022-08-26T17:46:06.974Z,22.30
2022-08-26T17:48:36.315Z,22.24
2022-08-26T17:51:09.709Z,22.22
2022-08-26T17:53:37.711Z,22.15
2022-08-26T17:56:10.833Z,22.12
2022-08-26T17:58:51.351Z,22.06
2022-08-26T18:01:27.552Z,21.98
2022-08-26T18:04:00.290Z,21.87
2022-08-26T18:06:29.380Z,21.85
2022-08-26T18:08:58.298Z,21.83
2022-08-26T18:11:29.262Z,21.83
2022-08-26T18:13:56.544Z,21.82
2022-08-26T18:16:24.629Z,21.81
2022-08-26T18:18:53.551Z,21.80
2022-08-26T18:21:24.618Z,21.75
2022-08-26T18:23:52.236Z,21.64
2022-08-26T18:26:35.066Z,21.53
2022-08-26T18:29:03.387Z,21.46
2022-08-26T18:31:31.123Z,21.37
2022-08-26T18:34:02.212Z,21.27
2022-08-26T18:36:36.912Z,21.17
2022-08-26T18:39:05.730Z,21.07
2022-08-26T18:41:34.890Z,20.98
2022-08-26T18:44:03.538Z,20.87
2022-08-26T18:46:38.482Z,20.78
2022-08-26T18:49:09.743Z,20.74
2022-08-26T18:51:38.105Z,20.70
2022-08-26T18:54:08.815Z,20.63
2022-08-26T18:56:37.632Z,20.59
2022-08-26T18:59:07.646Z,20.52
2022-08-26T19:01:36.245Z,20.55
2022-08-26T19:04:05.591Z,20.56
2022-08-26T19:06:35.720Z,20.54
2022-08-26T19:09:05.847Z,20.48
2022-08-26T19:11:37.440Z,20.61
2022-08-26T19:14:16.050Z,20.73
2022-08-26T19:16:46.832Z,20.71
2022-08-26T19:19:15.368Z,20.57
2022-08-26T19:21:42.778Z,20.60
2022-08-26T19:24:15.698Z,20.61
2022-08-26T19:26:48.598Z,20.58
2022-08-26T19:29:20.644Z,20.54
2022-08-26T19:31:47.991Z,20.39
2022-08-26T19:34:16.482Z,20.42
2022-08-26T19:36:47.839Z,20.45
2022-08-26T19:39:15.354Z,20.43
2022-08-26T19:41:42.549Z,20.30
2022-08-26T19:44:35.978Z,20.29
2022-08-26T19:47:03.899Z,20.18
2022-08-26T19:49:31.376Z,20.19
2022-08-26T19:51:58.555Z,20.15
2022-08-26T19:54:25.704Z,20.15
2022-08-26T19:56:52.971Z,20.08
2022-08-26T19:59:20.821Z,20.05
2022-08-26T20:02:00.715Z,20.03
2022-08-26T20:04:30.985Z,19.98
2022-08-26T20:07:01.348Z,19.91
2022-08-26T20:09:30.052Z,19.88
2022-08-26T20:11:57.582Z,19.85
2022-08-26T20:14:28.672Z,19.85
2022-08-26T20:16:57.042Z,19.79
2022-08-26T20:19:42.592Z,19.80
2022-08-26T20:22:10.345Z,19.84
2022-08-26T20:24:41.322Z,19.81
2022-08-26T20:27:10.793Z,19.75
2022-08-26T20:29:38.521Z,19.74
2022-08-26T20:32:08.082Z,19.87
2022-08-26T20:34:41.876Z,19.88
2022-08-26T20:37:09.371Z,19.78
2022-08-26T20:39:37.214Z,19.70
2022-08-26T20:42:06.826Z,19.69
2022-08-26T20:44:54.685Z,19.72
2022-08-26T20:47:25.247Z,19.79
2022-08-26T20:49:56.394Z,19.83
2022-08-26T20:52:23.635Z,19.89
2022-08-26T20:54:50.804Z,19.96
2022-08-26T20:57:18.170Z,19.97
2022-08-26T20:59:45.337Z,20.00
2022-08-26T21:02:12.409Z,20.01
2022-08-26T21:04:39.590Z,19.97
2022-08-26T21:07:06.858Z,19.85
2022-08-26T21:09:33.957Z,19.77
2022-08-26T21:12:01.603Z,19.72
2022-08-26T21:14:28.849Z,19.73
2022-08-26T21:16:57.106Z,19.75
2022-08-26T21:19:24.314Z,19.77
2022-08-26T21:21:51.553Z,19.68
2022-08-26T21:24:18.703Z,19.70
2022-08-26T21:26:46.418Z,19.63
2022-08-26T21:29:14.443Z,19.63
2022-08-26T21:31:46.103Z,19.57
2022-08-26T21:34:19.001Z,19.66
2022-08-26T21:36:47.401Z,19.77
2022-08-26T21:39:18.250Z,19.78
2022-08-26T21:41:47.376Z,19.74
2022-08-26T21:44:16.645Z,19.61
2022-08-26T21:46:45.385Z,19.47
2022-08-26T21:49:16.011Z,19.36
2022-08-26T21:51:46.169Z,19.27
2022-08-26T21:54:20.038Z,19.13
2022-08-26T21:56:52.975Z,19.03
2022-08-26T21:59:22.637Z,19.00
2022-08-26T22:01:51.576Z,18.95
2022-08-26T22:04:18.872Z,18.91
2022-08-26T22:06:52.893Z,19.07
2022-08-26T22:09:27.257Z,19.11
2022-08-26T22:11:57.013Z,19.25
2022-08-26T22:14:30.634Z,19.30
2022-08-26T22:17:07.421Z,19.37
2022-08-26T22:19:46.488Z,19.38
2022-08-26T22:22:16.979Z,19.41
2022-08-26T22:24:48.297Z,19.37
2022-08-26T22:27:15.402Z,19.31
2022-08-26T22:29:43.617Z,19.32
2022-08-26T22:32:11.344Z,19.26
2022-08-26T22:34:40.778Z,19.21
2022-08-26T22:37:10.520Z,19.22
2022-08-26T22:39:37.893Z,19.21
2022-08-26T22:42:08.766Z,19.26
2022-08-26T22:44:37.617Z,19.35
2022-08-26T22:47:07.371Z,19.35
2022-08-26T22:49:37.210Z,19.25
2022-08-26T22:52:06.732Z,19.13
2022-08-26T22:54:35.177Z,19.03
2022-08-26T22:57:02.528Z,18.90
2022-08-26T22:59:37.770Z,18.83
2022-08-26T23:02:11.113Z,18.76
2022-08-26T23:04:40.372Z,18.74
2022-08-26T23:07:12.375Z,18.66
2022-08-26T23:09:45.272Z,18.60
2022-08-26T23:12:12.649Z,18.53
2022-08-26T23:14:41.458Z,18.45
2022-08-26T23:17:14.833Z,18.44
2022-08-26T23:19:42.028Z,18.39
2022-08-26T23:22:09.188Z,18.34
2022-08-26T23:24:36.251Z,18.30
2022-08-26T23:27:03.964Z,18.27
2022-08-26T23:29:32.231Z,18.20
2022-08-26T23:31:59.431Z,18.20
2022-08-26T23:34:45.083Z,18.18
2022-08-26T23:37:13.934Z,18.26
2022-08-26T23:39:41.096Z,18.31
2022-08-26T23:42:08.773Z,18.23
2022-08-26T23:44:38.346Z,18.16
2022-08-26T23:47:06.531Z,18.11
2022-08-26T23:49:34.472Z,18.17
2022-08-26T23:52:20.465Z,18.34
2022-08-26T23:54:48.836Z,18.49
2022-08-26T23:57:20.594Z,18.42
2022-08-26T23:59:48.676Z,18.34
